sensor_id;sensor_type;location;lat;lon;timestamp;P1;durP1;ratioP1;P2;durP2;ratioP2
32780;SDS011;19136;47.032;15.502;2023-07-24T00:02:17;19.27;;;8.23;;
32780;SDS011;19136;47.032;15.502;2023-07-24T00:04:43;12.55;;;7.88;;
32780;SDS011;19136;47.032;15.502;2023-07-24T00:07:08;14.15;;;7.63;;
32780;SDS011;19136;47.032;15.502;2023-07-24T00:09:34;14.85;;;8.32;;
32780;SDS011;19136;47.032;15.502;2023-07-24T00:11:59;16.63;;;8.38;;
32780;SDS011;19136;47.032;15.502;2023-07-24T00:14:25;21.17;;;8.38;;
32780;SDS011;19136;47.032;15.502;2023-07-24T00:16:50;13.10;;;7.70;;
32780;SDS011;19136;47.032;15.502;2023-07-24T00:19:16;14.82;;;8.23;;
32780;SDS011;19136;47.032;15.502;2023-07-24T00:21:42;13.98;;;7.40;;
32780;SDS011;19136;47.032;15.502;2023-07-24T00:24:07;18.02;;;8.57;;
32780;SDS011;19136;47.032;15.502;2023-07-24T00:26:33;14.05;;;7.55;;
32780;SDS011;19136;47.032;15.502;2023-07-24T00:28:59;15.60;;;7.97;;
32780;SDS011;19136;47.032;15.502;2023-07-24T00:31:25;13.15;;;8.35;;
32780;SDS011;19136;47.032;15.502;2023-07-24T00:33:50;16.38;;;7.82;;
32780;SDS011;19136;47.032;15.502;2023-07-24T00:36:16;14.55;;;8.07;;
32780;SDS011;19136;47.032;15.502;2023-07-24T00:38:41;12.45;;;8.60;;
32780;SDS011;19136;47.032;15.502;2023-07-24T00:41:07;12.82;;;7.88;;
32780;SDS011;19136;47.032;15.502;2023-07-24T00:43:33;11.95;;;8.05;;
32780;SDS011;19136;47.032;15.502;2023-07-24T00:45:58;12.88;;;8.05;;
32780;SDS011;19136;47.032;15.502;2023-07-24T00:48:24;13.18;;;8.07;;
32780;SDS011;19136;47.032;15.502;2023-07-24T00:50:50;17.80;;;8.43;;
32780;SDS011;19136;47.032;15.502;2023-07-24T00:53:15;12.55;;;8.55;;
32780;SDS011;19136;47.032;15.502;2023-07-24T00:55:41;14.80;;;8.13;;
32780;SDS011;19136;47.032;15.502;2023-07-24T00:58:07;21.08;;;8.25;;
32780;SDS011;19136;47.032;15.502;2023-07-24T01:00:36;14.90;;;8.00;;
32780;SDS011;19136;47.032;15.502;2023-07-24T01:03:03;23.75;;;7.55;;
32780;SDS011;19136;47.032;15.502;2023-07-24T01:05:29;14.88;;;8.05;;
32780;SDS011;19136;47.032;15.502;2023-07-24T01:07:55;11.55;;;7.15;;
32780;SDS011;19136;47.032;15.502;2023-07-24T01:10:21;17.58;;;8.20;;
32780;SDS011;19136;47.032;15.502;2023-07-24T01:17:57;13.43;;;7.60;;
32780;SDS011;19136;47.032;15.502;2023-07-24T01:20:26;14.27;;;8.00;;
32780;SDS011;19136;47.032;15.502;2023-07-24T01:25:46;16.10;;;9.05;;
32780;SDS011;19136;47.032;15.502;2023-07-24T01:28:17;14.80;;;9.05;;
32780;SDS011;19136;47.032;15.502;2023-07-24T01:30:42;19.08;;;9.52;;
32780;SDS011;19136;47.032;15.502;2023-07-24T01:33:08;14.75;;;8.63;;
32780;SDS011;19136;47.032;15.502;2023-07-24T01:35:34;15.32;;;9.25;;
32780;SDS011;19136;47.032;15.502;2023-07-24T01:38:00;16.65;;;9.02;;
32780;SDS011;19136;47.032;15.502;2023-07-24T01:40:26;17.90;;;8.93;;
32780;SDS011;19136;47.032;15.502;2023-07-24T01:42:57;16.02;;;9.10;;
32780;SDS011;19136;47.032;15.502;2023-07-24T01:45:24;26.60;;;9.55;;
32780;SDS011;19136;47.032;15.502;2023-07-24T01:47:51;17.55;;;10.15;;
32780;SDS011;19136;47.032;15.502;2023-07-24T01:50:17;22.20;;;9.45;;
32780;SDS011;19136;47.032;15.502;2023-07-24T01:52:42;20.23;;;9.02;;
32780;SDS011;19136;47.032;15.502;2023-07-24T01:55:09;15.32;;;9.27;;
32780;SDS011;19136;47.032;15.502;2023-07-24T01:57:35;15.85;;;8.73;;
32780;SDS011;19136;47.032;15.502;2023-07-24T02:00:00;14.35;;;9.57;;
32780;SDS011;19136;47.032;15.502;2023-07-24T02:02:26;19.38;;;10.25;;
32780;SDS011;19136;47.032;15.502;2023-07-24T02:04:55;18.13;;;9.70;;
32780;SDS011;19136;47.032;15.502;2023-07-24T02:07:21;17.02;;;9.23;;
32780;SDS011;19136;47.032;15.502;2023-07-24T02:09:47;21.10;;;10.18;;
32780;SDS011;19136;47.032;15.502;2023-07-24T02:12:12;17.75;;;9.68;;
32780;SDS011;19136;47.032;15.502;2023-07-24T02:14:38;17.67;;;9.55;;
32780;SDS011;19136;47.032;15.502;2023-07-24T02:17:07;18.77;;;10.75;;
32780;SDS011;19136;47.032;15.502;2023-07-24T02:19:35;18.15;;;10.68;;
32780;SDS011;19136;47.032;15.502;2023-07-24T02:22:01;15.88;;;9.48;;
32780;SDS011;19136;47.032;15.502;2023-07-24T02:24:26;16.98;;;9.55;;
32780;SDS011;19136;47.032;15.502;2023-07-24T02:26:52;15.52;;;9.35;;
32780;SDS011;19136;47.032;15.502;2023-07-24T02:29:18;17.85;;;9.57;;
32780;SDS011;19136;47.032;15.502;2023-07-24T02:31:44;15.07;;;9.45;;
32780;SDS011;19136;47.032;15.502;2023-07-24T02:34:09;22.27;;;9.75;;
32780;SDS011;19136;47.032;15.502;2023-07-24T02:36:35;21.75;;;10.73;;
32780;SDS011;19136;47.032;15.502;2023-07-24T02:39:01;24.95;;;10.35;;
32780;SDS011;19136;47.032;15.502;2023-07-24T02:41:27;22.50;;;10.73;;
32780;SDS011;19136;47.032;15.502;2023-07-24T02:43:53;18.23;;;10.15;;
32780;SDS011;19136;47.032;15.502;2023-07-24T02:46:19;20.55;;;10.10;;
32780;SDS011;19136;47.032;15.502;2023-07-24T02:48:44;22.30;;;9.68;;
32780;SDS011;19136;47.032;15.502;2023-07-24T02:51:10;19.10;;;9.77;;
32780;SDS011;19136;47.032;15.502;2023-07-24T02:53:36;19.80;;;9.98;;
32780;SDS011;19136;47.032;15.502;2023-07-24T02:56:02;23.33;;;10.50;;
32780;SDS011;19136;47.032;15.502;2023-07-24T02:58:28;21.05;;;9.68;;
32780;SDS011;19136;47.032;15.502;2023-07-24T03:00:53;22.27;;;9.90;;
32780;SDS011;19136;47.032;15.502;2023-07-24T03:03:19;20.52;;;10.02;;
32780;SDS011;19136;47.032;15.502;2023-07-24T03:05:45;18.15;;;9.65;;
32780;SDS011;19136;47.032;15.502;2023-07-24T03:08:10;21.17;;;9.05;;
32780;SDS011;19136;47.032;15.502;2023-07-24T03:10:39;18.80;;;10.40;;
32780;SDS011;19136;47.032;15.502;2023-07-24T03:13:06;17.83;;;10.02;;
32780;SDS011;19136;47.032;15.502;2023-07-24T03:15:31;18.25;;;10.18;;
32780;SDS011;19136;47.032;15.502;2023-07-24T03:17:57;19.33;;;10.60;;
32780;SDS011;19136;47.032;15.502;2023-07-24T03:20:23;22.80;;;10.13;;
32780;SDS011;19136;47.032;15.502;2023-07-24T03:22:48;17.83;;;9.98;;
32780;SDS011;19136;47.032;15.502;2023-07-24T03:25:14;22.55;;;9.35;;
32780;SDS011;19136;47.032;15.502;2023-07-24T03:27:40;17.88;;;9.80;;
32780;SDS011;19136;47.032;15.502;2023-07-24T03:30:05;22.83;;;10.27;;
32780;SDS011;19136;47.032;15.502;2023-07-24T03:32:31;19.40;;;9.90;;
32780;SDS011;19136;47.032;15.502;2023-07-24T03:34:57;25.85;;;10.20;;
32780;SDS011;19136;47.032;15.502;2023-07-24T03:37:23;18.92;;;8.60;;
32780;SDS011;19136;47.032;15.502;2023-07-24T03:39:48;18.45;;;9.65;;
32780;SDS011;19136;47.032;15.502;2023-07-24T03:42:24;20.15;;;9.48;;
32780;SDS011;19136;47.032;15.502;2023-07-24T03:44:53;21.08;;;10.10;;
32780;SDS011;19136;47.032;15.502;2023-07-24T03:47:20;22.48;;;9.85;;
32780;SDS011;19136;47.032;15.502;2023-07-24T03:49:45;20.42;;;9.73;;
32780;SDS011;19136;47.032;15.502;2023-07-24T03:52:11;16.83;;;10.23;;
32780;SDS011;19136;47.032;15.502;2023-07-24T03:54:37;15.25;;;9.27;;
32780;SDS011;19136;47.032;15.502;2023-07-24T03:57:02;15.77;;;8.88;;
32780;SDS011;19136;47.032;15.502;2023-07-24T03:59:28;15.40;;;9.10;;
32780;SDS011;19136;47.032;15.502;2023-07-24T04:01:54;18.48;;;9.55;;
32780;SDS011;19136;47.032;15.502;2023-07-24T04:04:20;21.85;;;9.80;;
32780;SDS011;19136;47.032;15.502;2023-07-24T04:06:46;15.07;;;9.20;;
32780;SDS011;19136;47.032;15.502;2023-07-24T04:09:12;17.85;;;8.93;;
32780;SDS011;19136;47.032;15.502;2023-07-24T04:11:40;21.05;;;10.80;;
32780;SDS011;19136;47.032;15.502;2023-07-24T04:14:06;14.20;;;9.13;;
32780;SDS011;19136;47.032;15.502;2023-07-24T04:16:32;17.48;;;9.23;;
32780;SDS011;19136;47.032;15.502;2023-07-24T04:18:59;20.95;;;9.48;;
32780;SDS011;19136;47.032;15.502;2023-07-24T04:21:24;20.58;;;9.95;;
32780;SDS011;19136;47.032;15.502;2023-07-24T04:23:50;16.48;;;9.18;;
32780;SDS011;19136;47.032;15.502;2023-07-24T04:26:16;20.02;;;8.68;;
32780;SDS011;19136;47.032;15.502;2023-07-24T04:28:42;17.25;;;9.77;;
32780;SDS011;19136;47.032;15.502;2023-07-24T04:31:10;13.38;;;8.98;;
32780;SDS011;19136;47.032;15.502;2023-07-24T04:33:36;18.92;;;8.98;;
32780;SDS011;19136;47.032;15.502;2023-07-24T04:36:01;15.10;;;9.32;;
32780;SDS011;19136;47.032;15.502;2023-07-24T04:38:27;16.95;;;8.65;;
32780;SDS011;19136;47.032;15.502;2023-07-24T04:40:53;17.77;;;9.30;;
32780;SDS011;19136;47.032;15.502;2023-07-24T04:43:18;15.80;;;9.18;;
32780;SDS011;19136;47.032;15.502;2023-07-24T04:45:44;22.17;;;10.07;;
32780;SDS011;19136;47.032;15.502;2023-07-24T04:48:10;17.75;;;10.38;;
32780;SDS011;19136;47.032;15.502;2023-07-24T04:50:36;19.63;;;9.13;;
32780;SDS011;19136;47.032;15.502;2023-07-24T04:53:01;15.07;;;9.02;;
32780;SDS011;19136;47.032;15.502;2023-07-24T04:55:27;21.05;;;9.63;;
32780;SDS011;19136;47.032;15.502;2023-07-24T04:57:53;24.95;;;11.45;;
32780;SDS011;19136;47.032;15.502;2023-07-24T05:00:19;21.83;;;10.38;;
32780;SDS011;19136;47.032;15.502;2023-07-24T05:02:44;19.83;;;9.68;;
32780;SDS011;19136;47.032;15.502;2023-07-24T05:05:10;18.38;;;9.32;;
32780;SDS011;19136;47.032;15.502;2023-07-24T05:07:36;17.63;;;9.02;;
32780;SDS011;19136;47.032;15.502;2023-07-24T05:10:01;17.67;;;9.68;;
32780;SDS011;19136;47.032;15.502;2023-07-24T05:12:27;25.50;;;9.80;;
32780;SDS011;19136;47.032;15.502;2023-07-24T05:14:53;17.63;;;9.73;;
32780;SDS011;19136;47.032;15.502;2023-07-24T05:17:18;22.85;;;8.75;;
32780;SDS011;19136;47.032;15.502;2023-07-24T05:19:44;21.52;;;9.98;;
32780;SDS011;19136;47.032;15.502;2023-07-24T05:22:09;20.13;;;9.43;;
32780;SDS011;19136;47.032;15.502;2023-07-24T05:24:36;14.40;;;8.40;;
32780;SDS011;19136;47.032;15.502;2023-07-24T05:27:02;19.02;;;9.80;;
32780;SDS011;19136;47.032;15.502;2023-07-24T05:29:29;15.98;;;9.07;;
32780;SDS011;19136;47.032;15.502;2023-07-24T05:31:55;22.08;;;8.70;;
32780;SDS011;19136;47.032;15.502;2023-07-24T05:34:20;13.48;;;8.95;;
32780;SDS011;19136;47.032;15.502;2023-07-24T05:36:46;22.00;;;9.80;;
32780;SDS011;19136;47.032;15.502;2023-07-24T05:39:12;13.13;;;8.45;;
32780;SDS011;19136;47.032;15.502;2023-07-24T05:41:37;20.13;;;8.80;;
32780;SDS011;19136;47.032;15.502;2023-07-24T05:44:03;15.75;;;8.52;;
32780;SDS011;19136;47.032;15.502;2023-07-24T05:46:29;17.35;;;9.10;;
32780;SDS011;19136;47.032;15.502;2023-07-24T05:48:55;14.43;;;7.97;;
32780;SDS011;19136;47.032;15.502;2023-07-24T05:51:21;13.82;;;8.68;;
32780;SDS011;19136;47.032;15.502;2023-07-24T05:53:47;14.98;;;8.38;;
32780;SDS011;19136;47.032;15.502;2023-07-24T05:56:13;18.15;;;8.75;;
32780;SDS011;19136;47.032;15.502;2023-07-24T05:58:39;19.10;;;8.82;;
32780;SDS011;19136;47.032;15.502;2023-07-24T06:01:04;13.30;;;7.20;;
32780;SDS011;19136;47.032;15.502;2023-07-24T06:03:33;15.63;;;8.68;;
32780;SDS011;19136;47.032;15.502;2023-07-24T06:05:59;14.25;;;8.27;;
32780;SDS011;19136;47.032;15.502;2023-07-24T06:08:24;20.00;;;8.70;;
32780;SDS011;19136;47.032;15.502;2023-07-24T06:10:50;17.45;;;8.43;;
32780;SDS011;19136;47.032;15.502;2023-07-24T06:13:16;14.43;;;8.30;;
32780;SDS011;19136;47.032;15.502;2023-07-24T06:15:42;16.15;;;8.48;;
32780;SDS011;19136;47.032;15.502;2023-07-24T06:18:08;17.65;;;7.55;;
32780;SDS011;19136;47.032;15.502;2023-07-24T06:20:35;16.55;;;8.10;;
32780;SDS011;19136;47.032;15.502;2023-07-24T06:23:00;16.80;;;8.20;;
32780;SDS011;19136;47.032;15.502;2023-07-24T06:25:27;13.93;;;8.45;;
32780;SDS011;19136;47.032;15.502;2023-07-24T06:27:53;18.52;;;8.52;;
32780;SDS011;19136;47.032;15.502;2023-07-24T06:30:18;16.15;;;8.18;;
32780;SDS011;19136;47.032;15.502;2023-07-24T06:32:44;17.73;;;9.02;;
32780;SDS011;19136;47.032;15.502;2023-07-24T06:35:10;18.25;;;8.68;;
32780;SDS011;19136;47.032;15.502;2023-07-24T06:37:35;19.45;;;9.48;;
32780;SDS011;19136;47.032;15.502;2023-07-24T06:40:02;13.35;;;8.25;;
32780;SDS011;19136;47.032;15.502;2023-07-24T06:42:28;16.20;;;8.70;;
32780;SDS011;19136;47.032;15.502;2023-07-24T06:44:53;16.48;;;9.43;;
32780;SDS011;19136;47.032;15.502;2023-07-24T06:47:20;19.58;;;8.80;;
32780;SDS011;19136;47.032;15.502;2023-07-24T06:49:46;20.63;;;8.25;;
32780;SDS011;19136;47.032;15.502;2023-07-24T06:52:12;20.63;;;8.93;;
32780;SDS011;19136;47.032;15.502;2023-07-24T06:54:37;17.15;;;8.65;;
32780;SDS011;19136;47.032;15.502;2023-07-24T06:57:03;16.35;;;9.00;;
32780;SDS011;19136;47.032;15.502;2023-07-24T06:59:29;17.20;;;8.30;;
32780;SDS011;19136;47.032;15.502;2023-07-24T07:01:54;15.88;;;8.73;;
32780;SDS011;19136;47.032;15.502;2023-07-24T07:04:20;19.42;;;8.52;;
32780;SDS011;19136;47.032;15.502;2023-07-24T07:06:46;18.85;;;9.80;;
32780;SDS011;19136;47.032;15.502;2023-07-24T07:09:11;18.77;;;8.93;;
32780;SDS011;19136;47.032;15.502;2023-07-24T07:11:37;22.83;;;9.00;;
32780;SDS011;19136;47.032;15.502;2023-07-24T07:14:04;14.32;;;7.90;;
32780;SDS011;19136;47.032;15.502;2023-07-24T07:16:29;15.88;;;8.50;;
32780;SDS011;19136;47.032;15.502;2023-07-24T07:18:55;16.95;;;8.88;;
32780;SDS011;19136;47.032;15.502;2023-07-24T07:21:21;16.40;;;8.68;;
32780;SDS011;19136;47.032;15.502;2023-07-24T07:23:46;16.52;;;8.68;;
32780;SDS011;19136;47.032;15.502;2023-07-24T07:26:12;17.45;;;8.30;;
32780;SDS011;19136;47.032;15.502;2023-07-24T07:28:38;15.88;;;8.23;;
32780;SDS011;19136;47.032;15.502;2023-07-24T07:31:03;14.10;;;8.38;;
32780;SDS011;19136;47.032;15.502;2023-07-24T07:33:29;20.65;;;8.82;;
32780;SDS011;19136;47.032;15.502;2023-07-24T07:35:55;17.25;;;8.82;;
32780;SDS011;19136;47.032;15.502;2023-07-24T07:38:20;14.93;;;8.57;;
32780;SDS011;19136;47.032;15.502;2023-07-24T07:40:49;17.40;;;8.73;;
32780;SDS011;19136;47.032;15.502;2023-07-24T07:43:15;17.25;;;8.50;;
32780;SDS011;19136;47.032;15.502;2023-07-24T07:45:40;15.57;;;9.27;;
32780;SDS011;19136;47.032;15.502;2023-07-24T07:48:06;15.40;;;8.50;;
32780;SDS011;19136;47.032;15.502;2023-07-24T07:50:32;14.65;;;8.50;;
32780;SDS011;19136;47.032;15.502;2023-07-24T07:52:58;15.15;;;9.00;;
32780;SDS011;19136;47.032;15.502;2023-07-24T07:55:24;15.80;;;8.15;;
32780;SDS011;19136;47.032;15.502;2023-07-24T07:57:49;16.10;;;8.35;;
32780;SDS011;19136;47.032;15.502;2023-07-24T08:00:15;16.98;;;8.50;;
32780;SDS011;19136;47.032;15.502;2023-07-24T08:02:41;16.67;;;8.43;;
32780;SDS011;19136;47.032;15.502;2023-07-24T08:05:07;18.48;;;9.18;;
32780;SDS011;19136;47.032;15.502;2023-07-24T08:07:34;14.05;;;8.45;;
32780;SDS011;19136;47.032;15.502;2023-07-24T08:09:59;17.08;;;8.23;;
32780;SDS011;19136;47.032;15.502;2023-07-24T08:12:25;16.98;;;9.50;;
32780;SDS011;19136;47.032;15.502;2023-07-24T08:14:51;13.63;;;8.52;;
32780;SDS011;19136;47.032;15.502;2023-07-24T08:17:16;16.42;;;8.88;;
32780;SDS011;19136;47.032;15.502;2023-07-24T08:19:42;20.27;;;9.13;;
32780;SDS011;19136;47.032;15.502;2023-07-24T08:22:08;12.93;;;8.30;;
32780;SDS011;19136;47.032;15.502;2023-07-24T08:24:34;17.83;;;9.63;;
32780;SDS011;19136;47.032;15.502;2023-07-24T08:27:00;14.10;;;8.30;;
32780;SDS011;19136;47.032;15.502;2023-07-24T08:29:26;16.15;;;8.93;;
32780;SDS011;19136;47.032;15.502;2023-07-24T08:31:52;12.93;;;8.25;;
32780;SDS011;19136;47.032;15.502;2023-07-24T08:34:18;19.02;;;9.07;;
32780;SDS011;19136;47.032;15.502;2023-07-24T08:36:43;12.63;;;8.48;;
32780;SDS011;19136;47.032;15.502;2023-07-24T08:39:09;13.32;;;8.20;;
32780;SDS011;19136;47.032;15.502;2023-07-24T08:41:36;15.70;;;9.43;;
32780;SDS011;19136;47.032;15.502;2023-07-24T08:44:04;13.02;;;8.68;;
32780;SDS011;19136;47.032;15.502;2023-07-24T08:46:30;14.57;;;8.85;;
32780;SDS011;19136;47.032;15.502;2023-07-24T08:48:56;13.57;;;8.80;;
32780;SDS011;19136;47.032;15.502;2023-07-24T08:51:22;18.00;;;9.13;;
32780;SDS011;19136;47.032;15.502;2023-07-24T08:53:49;13.85;;;8.45;;
32780;SDS011;19136;47.032;15.502;2023-07-24T08:56:15;17.00;;;8.98;;
32780;SDS011;19136;47.032;15.502;2023-07-24T08:58:43;13.07;;;8.43;;
32780;SDS011;19136;47.032;15.502;2023-07-24T09:01:09;14.88;;;9.25;;
32780;SDS011;19136;47.032;15.502;2023-07-24T09:03:35;14.70;;;8.48;;
32780;SDS011;19136;47.032;15.502;2023-07-24T09:06:01;18.35;;;9.18;;
32780;SDS011;19136;47.032;15.502;2023-07-24T09:08:33;13.93;;;8.50;;
32780;SDS011;19136;47.032;15.502;2023-07-24T09:11:00;17.33;;;9.50;;
32780;SDS011;19136;47.032;15.502;2023-07-24T09:13:26;13.52;;;8.88;;
32780;SDS011;19136;47.032;15.502;2023-07-24T09:15:52;15.80;;;8.85;;
32780;SDS011;19136;47.032;15.502;2023-07-24T09:18:18;11.88;;;8.30;;
32780;SDS011;19136;47.032;15.502;2023-07-24T09:20:45;17.52;;;8.70;;
32780;SDS011;19136;47.032;15.502;2023-07-24T09:23:11;14.98;;;8.68;;
32780;SDS011;19136;47.032;15.502;2023-07-24T09:25:38;18.92;;;9.35;;
32780;SDS011;19136;47.032;15.502;2023-07-24T09:28:09;17.90;;;9.15;;
32780;SDS011;19136;47.032;15.502;2023-07-24T09:30:36;15.65;;;8.85;;
32780;SDS011;19136;47.032;15.502;2023-07-24T09:33:03;14.57;;;8.45;;
32780;SDS011;19136;47.032;15.502;2023-07-24T09:35:29;14.85;;;8.57;;
32780;SDS011;19136;47.032;15.502;2023-07-24T09:38:01;15.50;;;8.13;;
32780;SDS011;19136;47.032;15.502;2023-07-24T09:40:38;16.08;;;9.43;;
32780;SDS011;19136;47.032;15.502;2023-07-24T09:45:41;14.75;;;8.43;;
32780;SDS011;19136;47.032;15.502;2023-07-24T09:48:08;17.17;;;9.70;;
32780;SDS011;19136;47.032;15.502;2023-07-24T09:50:36;18.35;;;9.15;;
32780;SDS011;19136;47.032;15.502;2023-07-24T09:53:06;18.85;;;9.38;;
32780;SDS011;19136;47.032;15.502;2023-07-24T09:55:48;16.77;;;9.40;;
32780;SDS011;19136;47.032;15.502;2023-07-24T09:58:26;16.40;;;9.27;;
32780;SDS011;19136;47.032;15.502;2023-07-24T10:00:52;16.40;;;9.38;;
32780;SDS011;19136;47.032;15.502;2023-07-24T10:03:18;14.75;;;8.90;;
32780;SDS011;19136;47.032;15.502;2023-07-24T10:05:45;17.40;;;9.63;;
32780;SDS011;19136;47.032;15.502;2023-07-24T10:08:14;17.38;;;10.70;;
32780;SDS011;19136;47.032;15.502;2023-07-24T10:10:41;15.43;;;9.32;;
32780;SDS011;19136;47.032;15.502;2023-07-24T10:13:08;15.00;;;9.43;;
32780;SDS011;19136;47.032;15.502;2023-07-24T10:15:37;17.17;;;9.35;;
32780;SDS011;19136;47.032;15.502;2023-07-24T10:18:05;19.70;;;10.05;;
32780;SDS011;19136;47.032;15.502;2023-07-24T10:20:36;17.70;;;9.68;;
32780;SDS011;19136;47.032;15.502;2023-07-24T10:23:06;16.48;;;10.05;;
32780;SDS011;19136;47.032;15.502;2023-07-24T10:25:34;17.30;;;11.20;;
32780;SDS011;19136;47.032;15.502;2023-07-24T10:28:05;20.08;;;10.38;;
32780;SDS011;19136;47.032;15.502;2023-07-24T10:30:42;21.17;;;10.50;;
32780;SDS011;19136;47.032;15.502;2023-07-24T10:33:18;17.52;;;10.23;;
32780;SDS011;19136;47.032;15.502;2023-07-24T10:35:46;27.90;;;10.25;;
32780;SDS011;19136;47.032;15.502;2023-07-24T10:38:14;19.02;;;10.57;;
32780;SDS011;19136;47.032;15.502;2023-07-24T10:40:40;19.42;;;10.98;;
32780;SDS011;19136;47.032;15.502;2023-07-24T10:43:08;19.55;;;10.95;;
32780;SDS011;19136;47.032;15.502;2023-07-24T10:45:51;21.52;;;10.38;;
32780;SDS011;19136;47.032;15.502;2023-07-24T10:48:19;18.17;;;10.40;;
32780;SDS011;19136;47.032;15.502;2023-07-24T10:50:46;16.65;;;11.02;;
32780;SDS011;19136;47.032;15.502;2023-07-24T10:53:14;15.63;;;10.45;;
32780;SDS011;19136;47.032;15.502;2023-07-24T10:55:44;21.13;;;10.77;;
32780;SDS011;19136;47.032;15.502;2023-07-24T10:58:11;18.65;;;11.75;;
32780;SDS011;19136;47.032;15.502;2023-07-24T11:00:40;20.45;;;11.55;;
32780;SDS011;19136;47.032;15.502;2023-07-24T11:03:08;16.90;;;11.55;;
32780;SDS011;19136;47.032;15.502;2023-07-24T11:05:35;22.38;;;11.43;;
32780;SDS011;19136;47.032;15.502;2023-07-24T11:08:11;23.35;;;11.13;;
32780;SDS011;19136;47.032;15.502;2023-07-24T11:13:21;20.52;;;11.52;;
32780;SDS011;19136;47.032;15.502;2023-07-24T11:18:13;24.30;;;12.02;;
32780;SDS011;19136;47.032;15.502;2023-07-24T11:20:43;17.40;;;11.38;;
32780;SDS011;19136;47.032;15.502;2023-07-24T11:23:10;19.40;;;10.75;;
32780;SDS011;19136;47.032;15.502;2023-07-24T11:25:36;19.40;;;11.88;;
32780;SDS011;19136;47.032;15.502;2023-07-24T11:28:04;23.83;;;11.20;;
32780;SDS011;19136;47.032;15.502;2023-07-24T11:30:33;27.20;;;12.68;;
32780;SDS011;19136;47.032;15.502;2023-07-24T11:33:02;21.55;;;12.50;;
32780;SDS011;19136;47.032;15.502;2023-07-24T11:35:29;21.92;;;10.18;;
32780;SDS011;19136;47.032;15.502;2023-07-24T11:37:55;24.65;;;12.38;;
32780;SDS011;19136;47.032;15.502;2023-07-24T11:40:20;21.90;;;12.15;;
32780;SDS011;19136;47.032;15.502;2023-07-24T11:42:47;24.23;;;12.77;;
32780;SDS011;19136;47.032;15.502;2023-07-24T11:45:13;21.50;;;11.90;;
32780;SDS011;19136;47.032;15.502;2023-07-24T11:47:46;23.35;;;13.32;;
32780;SDS011;19136;47.032;15.502;2023-07-24T11:50:12;24.35;;;12.80;;
32780;SDS011;19136;47.032;15.502;2023-07-24T11:52:39;23.73;;;12.15;;
32780;SDS011;19136;47.032;15.502;2023-07-24T11:55:06;21.35;;;12.95;;
32780;SDS011;19136;47.032;15.502;2023-07-24T11:57:32;24.50;;;12.48;;
32780;SDS011;19136;47.032;15.502;2023-07-24T11:59:58;23.02;;;12.95;;
32780;SDS011;19136;47.032;15.502;2023-07-24T12:02:27;24.33;;;12.60;;
32780;SDS011;19136;47.032;15.502;2023-07-24T12:04:56;23.27;;;12.38;;
32780;SDS011;19136;47.032;15.502;2023-07-24T12:07:32;23.33;;;12.80;;
32780;SDS011;19136;47.032;15.502;2023-07-24T12:10:04;22.98;;;12.90;;
32780;SDS011;19136;47.032;15.502;2023-07-24T12:12:42;21.30;;;12.70;;
32780;SDS011;19136;47.032;15.502;2023-07-24T12:15:09;24.80;;;13.27;;
32780;SDS011;19136;47.032;15.502;2023-07-24T12:17:35;24.15;;;14.23;;
32780;SDS011;19136;47.032;15.502;2023-07-24T12:20:02;19.10;;;12.75;;
32780;SDS011;19136;47.032;15.502;2023-07-24T12:22:36;25.10;;;13.53;;
32780;SDS011;19136;47.032;15.502;2023-07-24T12:25:03;23.45;;;13.57;;
32780;SDS011;19136;47.032;15.502;2023-07-24T12:27:29;22.95;;;13.63;;
32780;SDS011;19136;47.032;15.502;2023-07-24T12:29:55;23.98;;;13.85;;
32780;SDS011;19136;47.032;15.502;2023-07-24T12:32:21;22.35;;;13.55;;
32780;SDS011;19136;47.032;15.502;2023-07-24T12:34:48;24.95;;;14.13;;
32780;SDS011;19136;47.032;15.502;2023-07-24T12:37:15;25.13;;;13.02;;
32780;SDS011;19136;47.032;15.502;2023-07-24T12:39:40;23.90;;;13.98;;
32780;SDS011;19136;47.032;15.502;2023-07-24T12:42:06;26.40;;;12.75;;
32780;SDS011;19136;47.032;15.502;2023-07-24T12:44:32;30.70;;;13.18;;
32780;SDS011;19136;47.032;15.502;2023-07-24T12:46:58;23.83;;;12.73;;
32780;SDS011;19136;47.032;15.502;2023-07-24T12:49:23;20.20;;;12.15;;
32780;SDS011;19136;47.032;15.502;2023-07-24T12:51:49;21.23;;;13.00;;
32780;SDS011;19136;47.032;15.502;2023-07-24T12:54:16;28.42;;;14.15;;
32780;SDS011;19136;47.032;15.502;2023-07-24T12:56:42;39.58;;;14.15;;
32780;SDS011;19136;47.032;15.502;2023-07-24T12:59:09;22.77;;;14.52;;
32780;SDS011;19136;47.032;15.502;2023-07-24T13:01:35;26.45;;;13.77;;
32780;SDS011;19136;47.032;15.502;2023-07-24T13:04:02;26.60;;;13.32;;
32780;SDS011;19136;47.032;15.502;2023-07-24T13:06:28;24.83;;;13.30;;
32780;SDS011;19136;47.032;15.502;2023-07-24T13:08:54;29.52;;;14.52;;
32780;SDS011;19136;47.032;15.502;2023-07-24T13:11:20;26.05;;;13.32;;
32780;SDS011;19136;47.032;15.502;2023-07-24T13:13:46;23.70;;;13.82;;
32780;SDS011;19136;47.032;15.502;2023-07-24T13:16:12;23.00;;;13.48;;
32780;SDS011;19136;47.032;15.502;2023-07-24T13:18:38;25.77;;;13.25;;
32780;SDS011;19136;47.032;15.502;2023-07-24T13:21:04;24.35;;;12.73;;
32780;SDS011;19136;47.032;15.502;2023-07-24T13:23:31;24.67;;;13.20;;
32780;SDS011;19136;47.032;15.502;2023-07-24T13:25:57;25.13;;;13.00;;
32780;SDS011;19136;47.032;15.502;2023-07-24T13:28:23;30.42;;;14.10;;
32780;SDS011;19136;47.032;15.502;2023-07-24T13:30:49;27.45;;;15.05;;
32780;SDS011;19136;47.032;15.502;2023-07-24T13:33:14;28.88;;;13.68;;
32780;SDS011;19136;47.032;15.502;2023-07-24T13:35:41;23.90;;;13.18;;
32780;SDS011;19136;47.032;15.502;2023-07-24T13:38:07;30.35;;;13.70;;
32780;SDS011;19136;47.032;15.502;2023-07-24T13:40:37;29.55;;;14.20;;
32780;SDS011;19136;47.032;15.502;2023-07-24T13:43:04;28.48;;;13.90;;
32780;SDS011;19136;47.032;15.502;2023-07-24T13:45:32;23.92;;;13.45;;
32780;SDS011;19136;47.032;15.502;2023-07-24T13:48:03;29.52;;;13.70;;
32780;SDS011;19136;47.032;15.502;2023-07-24T13:50:31;24.85;;;13.98;;
32780;SDS011;19136;47.032;15.502;2023-07-24T13:52:59;27.55;;;13.95;;
32780;SDS011;19136;47.032;15.502;2023-07-24T13:55:27;28.02;;;13.48;;
32780;SDS011;19136;47.032;15.502;2023-07-24T13:57:56;23.23;;;12.88;;
32780;SDS011;19136;47.032;15.502;2023-07-24T14:00:28;23.97;;;13.50;;
32780;SDS011;19136;47.032;15.502;2023-07-24T14:02:58;25.75;;;13.45;;
32780;SDS011;19136;47.032;15.502;2023-07-24T14:05:32;25.45;;;13.68;;
32780;SDS011;19136;47.032;15.502;2023-07-24T14:08:06;26.60;;;14.07;;
32780;SDS011;19136;47.032;15.502;2023-07-24T14:10:33;23.15;;;13.63;;
32780;SDS011;19136;47.032;15.502;2023-07-24T14:13:05;25.27;;;13.52;;
32780;SDS011;19136;47.032;15.502;2023-07-24T14:15:32;25.40;;;13.60;;
32780;SDS011;19136;47.032;15.502;2023-07-24T14:17:58;25.88;;;14.30;;
32780;SDS011;19136;47.032;15.502;2023-07-24T14:20:36;28.58;;;13.80;;
32780;SDS011;19136;47.032;15.502;2023-07-24T14:23:06;25.92;;;13.90;;
32780;SDS011;19136;47.032;15.502;2023-07-24T14:25:33;31.77;;;13.95;;
32780;SDS011;19136;47.032;15.502;2023-07-24T14:27:59;26.20;;;13.52;;
32780;SDS011;19136;47.032;15.502;2023-07-24T14:30:25;23.52;;;13.52;;